Time,TemperatureF,DewpointF,PressureIn,WindDirection,WindDirectionDegrees,WindSpeedMPH,WindSpeedGustMPH,Humidity,HourlyPrecipIn,Conditions,Clouds,dailyrainin,SoftwareType,DateUTC
2013-02-02 00:00:00,50.1,38.0,30.32,ENE,72,5.0,5.0,63,0.00,,,0.00,Wunderground v.1.13,2013-02-02 08:00:00,
2013-02-02 00:09:00,50.4,37.9,30.32,ENE,76,5.0,5.0,62,0.00,,,0.00,Wunderground v.1.13,2013-02-02 08:09:00,
2013-02-02 00:15:00,50.5,38.0,30.32,ENE,75,5.0,6.0,62,0.00,,,0.00,Wunderground v.1.13,2013-02-02 08:15:00,
2013-02-02 00:24:00,50.8,37.4,30.32,ENE,72,4.0,4.0,60,0.00,,,0.00,Wunderground v.1.13,2013-02-02 08:24:00,
2013-02-02 00:30:00,50.7,37.7,30.32,ENE,66,5.0,5.0,61,0.00,,,0.00,Wunderground v.1.13,2013-02-02 08:30:00,
2013-02-02 00:39:00,50.7,37.3,30.32,ENE,76,4.0,4.0,60,0.00,,,0.00,Wunderground v.1.13,2013-02-02 08:39:00,
2013-02-02 00:49:00,50.5,37.1,30.33,ENE,72,4.0,4.0,60,0.00,,,0.00,Wunderground v.1.13,2013-02-02 08:49:00,
2013-02-02 00:54:00,50.7,37.3,30.33,ENE,71,4.0,4.0,60,0.00,,,0.00,Wunderground v.1.13,2013-02-02 08:54:00,
2013-02-02 01:05:00,51.1,37.3,30.33,East,80,3.0,3.0,59,0.00,,,0.00,Wunderground v.1.13,2013-02-02 09:05:00,
2013-02-02 01:14:00,50.4,36.6,30.34,ENE,71,3.0,3.0,59,0.00,,,0.00,Wunderground v.1.13,2013-02-02 09:14:00,
2013-02-02 01:24:00,49.9,36.6,30.34,ENE,71,4.0,4.0,60,0.00,,,0.00,Wunderground v.1.13,2013-02-02 09:24:00,
2013-02-02 01:40:00,49.2,36.3,30.34,ENE,71,5.0,5.0,61,0.00,,,0.00,Wunderground v.1.13,2013-02-02 09:40:00,
2013-02-02 01:49:00,48.8,35.9,30.34,ENE,72,5.0,6.0,61,0.00,,,0.00,Wunderground v.1.13,2013-02-02 09:49:00,
2013-02-02 01:59:00,48.6,35.7,30.34,ENE,69,6.0,6.0,61,0.00,,,0.00,Wunderground v.1.13,2013-02-02 09:59:00,
2013-02-02 02:05:00,48.5,35.7,30.34,ENE,73,6.0,6.0,61,0.00,,,0.00,Wunderground v.1.13,2013-02-02 10:05:00,
2013-02-02 02:14:00,48.9,36.0,30.34,ENE,77,8.0,10.0,61,0.00,,,0.00,Wunderground v.1.13,2013-02-02 10:14:00,
2013-02-02 02:20:00,49.1,35.8,30.34,ENE,78,8.0,8.0,60,0.00,,,0.00,Wunderground v.1.13,2013-02-02 10:20:00,
2013-02-02 02:29:00,49.1,35.4,30.34,East,87,7.0,7.0,59,0.00,,,0.00,Wunderground v.1.13,2013-02-02 10:29:00,
2013-02-02 02:35:00,48.9,35.2,30.34,ENE,70,6.0,6.0,59,0.00,,,0.00,Wunderground v.1.13,2013-02-02 10:35:00,
2013-02-02 02:45:00,48.8,35.1,30.34,ENE,65,5.0,6.0,59,0.00,,,0.00,Wunderground v.1.13,2013-02-02 10:45:00,
2013-02-02 02:54:00,48.9,35.2,30.34,ENE,69,4.0,6.0,59,0.00,,,0.00,Wunderground v.1.13,2013-02-02 10:54:00,
2013-02-02 03:00:00,48.9,34.8,30.34,ENE,72,4.0,4.0,58,0.00,,,0.00,Wunderground v.1.13,2013-02-02 11:00:00,
2013-02-02 03:10:00,49.1,34.5,30.34,NE,44,1.0,6.0,57,0.00,,,0.00,Wunderground v.1.13,2013-02-02 11:10:00,
2013-02-02 03:19:00,49.6,34.5,30.34,ENE,76,1.0,6.0,56,0.00,,,0.00,Wunderground v.1.13,2013-02-02 11:19:00,
2013-02-02 03:25:00,49.8,34.3,30.34,ENE,76,2.0,6.0,55,0.00,,,0.00,Wunderground v.1.13,2013-02-02 11:25:00,
2013-02-02 03:34:00,49.6,34.5,30.34,ENE,76,3.0,3.0,56,0.00,,,0.00,Wunderground v.1.13,2013-02-02 11:34:00,
2013-02-02 03:39:00,49.5,34.0,30.34,ENE,76,2.0,2.0,55,0.00,,,0.00,Wunderground v.1.13,2013-02-02 11:39:00,
2013-02-02 03:49:00,49.2,33.7,30.34,ENE,76,0.0,6.0,55,0.00,,,0.00,Wunderground v.1.13,2013-02-02 11:49:00,
2013-02-02 03:55:00,49.1,33.6,30.34,ENE,76,0.0,6.0,55,0.00,,,0.00,Wunderground v.1.13,2013-02-02 11:55:00,
2013-02-02 04:04:00,48.9,33.9,30.34,ENE,76,2.0,6.0,56,0.00,,,0.00,Wunderground v.1.13,2013-02-02 12:04:00,
2013-02-02 04:09:00,48.6,33.6,30.34,ENE,76,2.0,2.0,56,0.00,,,0.00,Wunderground v.1.13,2013-02-02 12:09:00,
2013-02-02 04:19:00,48.3,33.8,30.35,ENE,74,3.0,6.0,57,0.00,,,0.00,Wunderground v.1.13,2013-02-02 12:19:00,
2013-02-02 04:25:00,48.2,33.7,30.35,ENE,74,4.0,6.0,57,0.00,,,0.00,Wunderground v.1.13,2013-02-02 12:25:00,
2013-02-02 04:34:00,48.0,33.5,30.35,ENE,71,5.0,5.0,57,0.00,,,0.00,Wunderground v.1.13,2013-02-02 12:34:00,
2013-02-02 04:44:00,48.2,33.7,30.35,ENE,72,6.0,6.0,57,0.00,,,0.00,Wunderground v.1.13,2013-02-02 12:44:00,
2013-02-02 04:49:00,48.0,33.5,30.35,ENE,71,6.0,6.0,57,0.00,,,0.00,Wunderground v.1.13,2013-02-02 12:49:00,
2013-02-02 04:54:00,47.9,34.3,30.35,ENE,78,5.0,6.0,59,0.00,,,0.00,Wunderground v.1.13,2013-02-02 12:54:00,
2013-02-02 05:04:00,48.0,33.9,30.34,ENE,74,4.0,6.0,58,0.00,,,0.00,Wunderground v.1.13,2013-02-02 13:04:00,
2013-02-02 05:10:00,48.0,33.5,30.34,ENE,74,4.0,6.0,57,0.00,,,0.00,Wunderground v.1.13,2013-02-02 13:10:00,
2013-02-02 05:20:00,48.5,33.5,30.35,East,80,5.0,6.0,56,0.00,,,0.00,Wunderground v.1.13,2013-02-02 13:20:00,
2013-02-02 05:29:00,48.5,33.1,30.35,ENE,71,4.0,6.0,55,0.00,,,0.00,Wunderground v.1.13,2013-02-02 13:29:00,
2013-02-02 05:35:00,48.6,33.6,30.35,East,79,4.0,6.0,56,0.00,,,0.00,Wunderground v.1.13,2013-02-02 13:35:00,
2013-02-02 05:45:00,48.5,33.1,30.35,ENE,71,5.0,6.0,55,0.00,,,0.00,Wunderground v.1.13,2013-02-02 13:45:00,
2013-02-02 05:54:00,48.3,32.9,30.34,ENE,71,3.0,3.0,55,0.00,,,0.00,Wunderground v.1.13,2013-02-02 13:54:00,
2013-02-02 06:04:00,49.1,33.2,30.34,ENE,71,2.0,6.0,54,0.00,,,0.00,Wunderground v.1.13,2013-02-02 14:04:00,
2013-02-02 06:15:00,49.6,33.2,30.34,ENE,74,3.0,6.0,53,0.00,,,0.00,Wunderground v.1.13,2013-02-02 14:15:00,
2013-02-02 06:25:00,49.8,32.9,30.34,ENE,74,3.0,6.0,52,0.00,,,0.00,Wunderground v.1.13,2013-02-02 14:25:00,
2013-02-02 06:34:00,50.1,33.1,30.35,East,80,4.0,6.0,52,0.00,,,0.00,Wunderground v.1.13,2013-02-02 14:34:00,
2013-02-02 06:44:00,50.1,32.7,30.35,East,81,3.0,6.0,51,0.00,,,0.00,Wunderground v.1.13,2013-02-02 14:44:00,
2013-02-02 06:49:00,50.2,33.2,30.35,ENE,77,4.0,6.0,52,0.00,,,0.00,Wunderground v.1.13,2013-02-02 14:49:00,
2013-02-02 06:59:00,49.5,32.6,30.36,East,80,4.0,6.0,52,0.00,,,0.00,Wunderground v.1.13,2013-02-02 14:59:00,
2013-02-02 07:14:00,48.3,32.9,30.37,ENE,69,4.0,4.0,55,0.00,,,0.00,Wunderground v.1.13,2013-02-02 15:14:00,
2013-02-02 07:20:00,48.2,32.8,30.37,ENE,75,4.0,4.0,55,0.00,,,0.00,Wunderground v.1.13,2013-02-02 15:20:00,
2013-02-02 07:29:00,48.3,32.4,30.38,ENE,66,3.0,6.0,54,0.00,,,0.00,Wunderground v.1.13,2013-02-02 15:29:00,
2013-02-02 07:35:00,48.3,32.9,30.38,ENE,76,3.0,6.0,55,0.00,,,0.00,Wunderground v.1.13,2013-02-02 15:35:00,
2013-02-02 07:45:00,48.0,33.0,30.38,ENE,75,5.0,6.0,56,0.00,,,0.00,Wunderground v.1.13,2013-02-02 15:45:00,
2013-02-02 07:50:00,48.0,33.0,30.38,East,80,5.0,6.0,56,0.00,,,0.00,Wunderground v.1.13,2013-02-02 15:50:00,
2013-02-02 07:55:00,48.3,33.3,30.38,ENE,78,6.0,8.0,56,0.00,,,0.00,Wunderground v.1.13,2013-02-02 15:55:00,
2013-02-02 08:04:00,48.6,33.6,30.38,ENE,73,6.0,6.0,56,0.00,,,0.00,Wunderground v.1.13,2013-02-02 16:04:00,
2013-02-02 08:15:00,48.5,33.9,30.39,ENE,69,5.0,6.0,57,0.00,,,0.00,Wunderground v.1.13,2013-02-02 16:15:00,
2013-02-02 08:24:00,48.9,33.9,30.39,ENE,73,5.0,5.0,56,0.00,,,0.00,Wunderground v.1.13,2013-02-02 16:24:00,
2013-02-02 08:34:00,49.2,34.2,30.40,ENE,71,5.0,6.0,56,0.00,,,0.00,Wunderground v.1.13,2013-02-02 16:34:00,
2013-02-02 08:44:00,49.6,34.5,30.39,ENE,71,5.0,6.0,56,0.00,,,0.00,Wunderground v.1.13,2013-02-02 16:44:00,
2013-02-02 08:50:00,49.9,34.4,30.40,ENE,78,5.0,5.0,55,0.00,,,0.00,Wunderground v.1.13,2013-02-02 16:50:00,
2013-02-02 08:59:00,50.5,34.5,30.40,ENE,71,4.0,4.0,54,0.00,,,0.00,Wunderground v.1.13,2013-02-02 16:59:00,
2013-02-02 09:09:00,51.1,34.5,30.40,ENE,78,3.0,6.0,53,0.00,,,0.00,Wunderground v.1.13,2013-02-02 17:09:00,
2013-02-02 09:14:00,51.4,35.3,30.40,ENE,78,3.0,6.0,54,0.00,,,0.00,Wunderground v.1.13,2013-02-02 17:14:00,
2013-02-02 09:24:00,52.2,35.1,30.40,ENE,78,2.0,2.0,52,0.00,,,0.00,Wunderground v.1.13,2013-02-02 17:24:00,
2013-02-02 09:29:00,52.5,34.4,30.40,ENE,78,1.0,1.0,50,0.00,,,0.00,Wunderground v.1.13,2013-02-02 17:29:00,
2013-02-02 09:39:00,52.9,35.7,30.40,ENE,78,1.0,6.0,52,0.00,,,0.00,Wunderground v.1.13,2013-02-02 17:39:00,
2013-02-02 09:44:00,52.9,34.2,30.40,ENE,78,1.0,1.0,49,0.00,,,0.00,Wunderground v.1.13,2013-02-02 17:44:00,
2013-02-02 09:50:00,53.2,35.0,30.40,ENE,78,1.0,1.0,50,0.00,,,0.00,Wunderground v.1.13,2013-02-02 17:50:00,
2013-02-02 09:59:00,54.1,37.3,30.40,ENE,78,1.0,1.0,53,0.00,,,0.00,Wunderground v.1.13,2013-02-02 17:59:00,
2013-02-02 10:04:00,54.5,36.2,30.40,ENE,78,1.0,1.0,50,0.00,,,0.00,Wunderground v.1.13,2013-02-02 18:04:00,
2013-02-02 10:10:00,54.8,37.5,30.40,ENE,78,1.0,6.0,52,0.00,,,0.00,Wunderground v.1.13,2013-02-02 18:10:00,
2013-02-02 10:15:00,55.3,38.0,30.40,ESE,118,3.0,3.0,52,0.00,,,0.00,Wunderground v.1.13,2013-02-02 18:15:00,
2013-02-02 10:24:00,56.2,37.8,30.39,ESE,102,3.0,3.0,50,0.00,,,0.00,Wunderground v.1.13,2013-02-02 18:24:00,
2013-02-02 10:34:00,56.6,36.0,30.40,ESE,102,1.0,1.0,46,0.00,,,0.00,Wunderground v.1.13,2013-02-02 18:34:00,
2013-02-02 10:39:00,56.6,36.6,30.40,ESE,102,1.0,6.0,47,0.00,,,0.00,Wunderground v.1.13,2013-02-02 18:39:00,
2013-02-02 10:49:00,56.5,37.6,30.40,ESE,102,0.0,6.0,49,0.00,,,0.00,Wunderground v.1.13,2013-02-02 18:49:00,
2013-02-02 10:54:00,56.0,35.5,30.40,ESE,102,0.0,6.0,46,0.00,,,0.00,Wunderground v.1.13,2013-02-02 18:54:00,
2013-02-02 10:59:00,56.2,35.7,30.40,ESE,102,0.0,6.0,46,0.00,,,0.00,Wunderground v.1.13,2013-02-02 18:59:00,
2013-02-02 11:09:00,57.0,37.0,30.40,ESE,102,0.0,6.0,47,0.00,,,0.00,Wunderground v.1.13,2013-02-02 19:09:00,
2013-02-02 11:19:00,58.4,37.1,30.39,ESE,102,1.0,1.0,45,0.00,,,0.00,Wunderground v.1.13,2013-02-02 19:19:00,
2013-02-02 11:25:00,58.6,36.2,30.38,ESE,102,1.0,1.0,43,0.00,,,0.00,Wunderground v.1.13,2013-02-02 19:25:00,
2013-02-02 11:35:00,58.9,35.2,30.38,SE,133,1.0,1.0,41,0.00,,,0.00,Wunderground v.1.13,2013-02-02 19:35:00,
2013-02-02 11:44:00,60.7,36.2,30.37,SE,129,0.0,6.0,40,0.00,,,0.00,Wunderground v.1.13,2013-02-02 19:44:00,
2013-02-02 11:50:00,61.0,36.5,30.37,SE,127,0.0,6.0,40,0.00,,,0.00,Wunderground v.1.13,2013-02-02 19:50:00,
2013-02-02 12:00:00,61.2,34.7,30.37,SE,127,0.0,6.0,37,0.00,,,0.00,Wunderground v.1.13,2013-02-02 20:00:00,
2013-02-02 12:14:00,60.7,38.1,30.37,ESE,121,0.0,6.0,43,0.00,,,0.00,Wunderground v.1.13,2013-02-02 20:14:00,
2013-02-02 12:20:00,60.4,37.2,30.36,ESE,116,0.0,6.0,42,0.00,,,0.00,Wunderground v.1.13,2013-02-02 20:20:00,
2013-02-02 12:30:00,60.5,36.7,30.36,ESE,116,0.0,6.0,41,0.00,,,0.00,Wunderground v.1.13,2013-02-02 20:30:00,
2013-02-02 12:39:00,60.7,38.6,30.36,ESE,116,0.0,6.0,44,0.00,,,0.00,Wunderground v.1.13,2013-02-02 20:39:00,
2013-02-02 12:49:00,60.5,34.1,30.36,ESE,116,0.0,6.0,37,0.00,,,0.00,Wunderground v.1.13,2013-02-02 20:49:00,
2013-02-02 12:55:00,60.5,36.0,30.36,ESE,116,0.0,6.0,40,0.00,,,0.00,Wunderground v.1.13,2013-02-02 20:55:00,
2013-02-02 13:05:00,62.3,34.3,30.35,SSE,156,0.0,0.0,35,0.00,,,0.00,Wunderground v.1.13,2013-02-02 21:05:00,
2013-02-02 13:15:00,62.1,33.4,30.36,SW,224,0.0,0.0,34,0.00,,,0.00,Wunderground v.1.13,2013-02-02 21:15:00,
2013-02-02 13:24:00,62.0,33.3,30.35,SSE,160,0.0,0.0,34,0.00,,,0.00,Wunderground v.1.13,2013-02-02 21:24:00,
2013-02-02 13:29:00,61.6,35.7,30.35,SSE,160,0.0,0.0,38,0.00,,,0.00,Wunderground v.1.13,2013-02-02 21:29:00,
2013-02-02 13:39:00,61.6,36.4,30.34,ESE,105,0.0,4.0,39,0.00,,,0.00,Wunderground v.1.13,2013-02-02 21:39:00,
2013-02-02 13:49:00,61.3,36.1,30.34,East,89,2.0,2.0,39,0.00,,,0.00,Wunderground v.1.13,2013-02-02 21:49:00,
2013-02-02 13:55:00,61.3,35.5,30.34,East,84,2.0,2.0,38,0.00,,,0.00,Wunderground v.1.13,2013-02-02 21:55:00,
2013-02-02 14:05:00,61.3,34.1,30.33,East,82,1.0,1.0,36,0.00,,,0.00,Wunderground v.1.13,2013-02-02 22:05:00,
2013-02-02 14:14:00,61.6,30.6,30.33,ESE,120,0.0,1.0,31,0.00,,,0.00,Wunderground v.1.13,2013-02-02 22:14:00,
2013-02-02 14:24:00,61.6,32.2,30.32,SE,128,2.0,2.0,33,0.00,,,0.00,Wunderground v.1.13,2013-02-02 22:24:00,
2013-02-02 14:34:00,62.4,34.4,30.32,East,81,1.0,1.0,35,0.00,,,0.00,Wunderground v.1.13,2013-02-02 22:34:00,
2013-02-02 14:44:00,62.0,33.3,30.32,NE,46,2.0,2.0,34,0.00,,,0.00,Wunderground v.1.13,2013-02-02 22:44:00,
2013-02-02 14:54:00,61.6,33.7,30.32,SE,130,1.0,3.0,35,0.00,,,0.00,Wunderground v.1.13,2013-02-02 22:54:00,
2013-02-02 15:00:00,62.0,32.5,30.32,SE,130,0.0,1.0,33,0.00,,,0.00,Wunderground v.1.13,2013-02-02 23:00:00,
2013-02-02 15:10:00,61.5,32.8,30.33,SE,133,0.0,1.0,34,0.00,,,0.00,Wunderground v.1.13,2013-02-02 23:10:00,
2013-02-02 15:19:00,62.3,32.0,30.32,West,273,0.0,3.0,32,0.00,,,0.00,Wunderground v.1.13,2013-02-02 23:19:00,
2013-02-02 15:24:00,62.6,31.5,30.32,West,265,0.0,1.0,31,0.00,,,0.00,Wunderground v.1.13,2013-02-02 23:24:00,
2013-02-02 15:30:00,62.3,31.3,30.32,WNW,301,0.0,1.0,31,0.00,,,0.00,Wunderground v.1.13,2013-02-02 23:30:00,
2013-02-02 15:39:00,62.3,29.6,30.33,WNW,294,0.0,1.0,29,0.00,,,0.00,Wunderground v.1.13,2013-02-02 23:39:00,
2013-02-02 15:44:00,62.4,28.8,30.32,SSW,199,0.0,1.0,28,0.00,,,0.00,Wunderground v.1.13,2013-02-02 23:44:00,
2013-02-02 15:54:00,62.3,31.3,30.32,SSW,205,0.0,1.0,31,0.00,,,0.00,Wunderground v.1.13,2013-02-02 23:54:00,
2013-02-02 16:04:00,62.1,31.1,30.32,SSW,205,0.0,1.0,31,0.00,,,0.00,Wunderground v.1.13,2013-02-03 00:04:00,
2013-02-02 16:14:00,61.6,35.1,30.32,SSW,207,0.0,1.0,37,0.00,,,0.00,Wunderground v.1.13,2013-02-03 00:14:00,
2013-02-02 16:24:00,61.2,35.4,30.32,South,190,0.0,1.0,38,0.00,,,0.00,Wunderground v.1.13,2013-02-03 00:24:00,
2013-02-02 16:34:00,60.4,35.9,30.32,South,190,0.0,1.0,40,0.00,,,0.00,Wunderground v.1.13,2013-02-03 00:34:00,
2013-02-02 16:44:00,59.2,38.4,30.32,South,190,0.0,1.0,46,0.00,,,0.00,Wunderground v.1.13,2013-02-03 00:44:00,
2013-02-02 16:49:00,58.7,39.0,30.33,South,190,0.0,1.0,48,0.00,,,0.00,Wunderground v.1.13,2013-02-03 00:49:00,
2013-02-02 16:55:00,58.7,40.1,30.33,South,190,0.0,1.0,50,0.00,,,0.00,Wunderground v.1.13,2013-02-03 00:55:00,
2013-02-02 17:05:00,57.8,41.7,30.33,West,261,0.0,1.0,55,0.00,,,0.00,Wunderground v.1.13,2013-02-03 01:05:00,
2013-02-02 17:14:00,56.6,42.4,30.33,West,265,0.0,1.0,59,0.00,,,0.00,Wunderground v.1.13,2013-02-03 01:14:00,
2013-02-02 17:24:00,56.0,43.2,30.32,West,266,0.0,1.0,62,0.00,,,0.00,Wunderground v.1.13,2013-02-03 01:24:00,
2013-02-02 17:29:00,55.6,43.6,30.32,West,268,0.0,1.0,64,0.00,,,0.00,Wunderground v.1.13,2013-02-03 01:29:00,
2013-02-02 17:34:00,55.4,43.4,30.33,West,268,0.0,1.0,64,0.00,,,0.00,Wunderground v.1.13,2013-02-03 01:34:00,
2013-02-02 17:39:00,55.3,43.7,30.33,NW,314,0.0,1.0,65,0.00,,,0.00,Wunderground v.1.13,2013-02-03 01:39:00,
2013-02-02 17:45:00,55.0,43.4,30.33,NW,313,0.0,1.0,65,0.00,,,0.00,Wunderground v.1.13,2013-02-03 01:45:00,
2013-02-02 17:54:00,54.5,43.4,30.33,NW,315,0.0,1.0,66,0.00,,,0.00,Wunderground v.1.13,2013-02-03 01:54:00,
2013-02-02 17:59:00,54.7,43.6,30.33,NW,315,0.0,1.0,66,0.00,,,0.00,Wunderground v.1.13,2013-02-03 01:59:00,
2013-02-02 18:04:00,55.0,43.4,30.33,NW,315,0.0,1.0,65,0.00,,,0.00,Wunderground v.1.13,2013-02-03 02:04:00,
2013-02-02 18:14:00,55.6,42.4,30.34,NW,315,0.0,1.0,61,0.00,,,0.00,Wunderground v.1.13,2013-02-03 02:14:00,
2013-02-02 18:20:00,55.7,42.5,30.33,NW,315,0.0,1.0,61,0.00,,,0.00,Wunderground v.1.13,2013-02-03 02:20:00,
2013-02-02 18:29:00,55.4,43.8,30.34,ENE,57,0.0,2.0,65,0.00,,,0.00,Wunderground v.1.13,2013-02-03 02:29:00,
2013-02-02 18:39:00,54.7,43.2,30.34,ENE,69,2.0,4.0,65,0.00,,,0.00,Wunderground v.1.13,2013-02-03 02:39:00,
2013-02-02 18:44:00,54.4,42.9,30.34,ENE,69,3.0,4.0,65,0.00,,,0.00,Wunderground v.1.13,2013-02-03 02:44:00,
2013-02-02 18:50:00,54.1,42.6,30.34,ENE,69,3.0,4.0,65,0.00,,,0.00,Wunderground v.1.13,2013-02-03 02:50:00,
2013-02-02 18:59:00,53.8,43.1,30.34,ENE,74,4.0,4.0,67,0.00,,,0.00,Wunderground v.1.13,2013-02-03 02:59:00,
2013-02-02 19:09:00,53.3,41.8,30.35,ENE,74,3.0,5.0,65,0.00,,,0.00,Wunderground v.1.13,2013-02-03 03:09:00,
2013-02-02 19:14:00,53.6,41.3,30.34,ENE,76,3.0,3.0,63,0.00,,,0.00,Wunderground v.1.13,2013-02-03 03:14:00,
2013-02-02 19:24:00,53.5,40.8,30.34,ENE,76,2.0,2.0,62,0.00,,,0.00,Wunderground v.1.13,2013-02-03 03:24:00,
2013-02-02 19:29:00,53.2,40.5,30.35,ENE,76,1.0,1.0,62,0.00,,,0.00,Wunderground v.1.13,2013-02-03 03:29:00,
2013-02-02 19:34:00,53.1,40.4,30.35,ENE,76,0.0,1.0,62,0.00,,,0.00,Wunderground v.1.13,2013-02-03 03:34:00,
2013-02-02 19:44:00,52.8,40.1,30.34,ENE,76,1.0,4.0,62,0.00,,,0.00,Wunderground v.1.13,2013-02-03 03:44:00,
2013-02-02 19:49:00,52.5,39.8,30.35,ENE,78,3.0,5.0,62,0.00,,,0.00,Wunderground v.1.13,2013-02-03 03:49:00,
2013-02-02 19:55:00,52.3,39.7,30.35,ENE,76,4.0,4.0,62,0.00,,,0.00,Wunderground v.1.13,2013-02-03 03:55:00,
2013-02-02 20:04:00,52.0,39.4,30.34,ENE,74,4.0,4.0,62,0.00,,,0.00,Wunderground v.1.13,2013-02-03 04:04:00,
2013-02-02 20:09:00,51.9,39.7,30.34,ENE,74,3.0,3.0,63,0.00,,,0.00,Wunderground v.1.13,2013-02-03 04:09:00,
2013-02-02 20:19:00,51.9,40.1,30.34,ENE,74,1.0,1.0,64,0.00,,,0.00,Wunderground v.1.13,2013-02-03 04:19:00,
2013-02-02 20:24:00,51.7,39.1,30.34,NNE,32,1.0,1.0,62,0.00,,,0.00,Wunderground v.1.13,2013-02-03 04:24:00,
2013-02-02 20:29:00,51.7,39.1,30.34,NE,50,1.0,1.0,62,0.00,,,0.00,Wunderground v.1.13,2013-02-03 04:29:00,
2013-02-02 20:35:00,51.6,39.0,30.34,NE,50,0.0,1.0,62,0.00,,,0.00,Wunderground v.1.13,2013-02-03 04:35:00,
2013-02-02 20:44:00,51.0,38.8,30.34,ENE,67,1.0,2.0,63,0.00,,,0.00,Wunderground v.1.13,2013-02-03 04:44:00,
2013-02-02 20:50:00,50.8,38.7,30.34,ENE,67,2.0,2.0,63,0.00,,,0.00,Wunderground v.1.13,2013-02-03 04:50:00,
2013-02-02 21:00:00,50.7,39.0,30.34,ENE,67,2.0,2.0,64,0.00,,,0.00,Wunderground v.1.13,2013-02-03 05:00:00,
2013-02-02 21:05:00,50.4,38.7,30.34,ENE,67,0.0,3.0,64,0.00,,,0.00,Wunderground v.1.13,2013-02-03 05:05:00,
2013-02-02 21:09:00,50.4,38.3,30.34,ENE,67,1.0,3.0,63,0.00,,,0.00,Wunderground v.1.13,2013-02-03 05:09:00,
2013-02-02 21:15:00,50.4,37.9,30.33,ENE,71,2.0,3.0,62,0.00,,,0.00,Wunderground v.1.13,2013-02-03 05:15:00,
2013-02-02 21:24:00,50.1,37.6,30.33,ENE,74,5.0,5.0,62,0.00,,,0.00,Wunderground v.1.13,2013-02-03 05:24:00,
2013-02-02 21:29:00,49.8,37.3,30.33,ENE,74,5.0,5.0,62,0.00,,,0.00,Wunderground v.1.13,2013-02-03 05:29:00,
2013-02-02 21:39:00,49.5,37.4,30.33,ENE,73,4.0,4.0,63,0.00,,,0.00,Wunderground v.1.13,2013-02-03 05:39:00,
2013-02-02 21:45:00,49.5,37.0,30.33,ENE,69,4.0,4.0,62,0.00,,,0.00,Wunderground v.1.13,2013-02-03 05:45:00,
2013-02-02 21:54:00,49.6,37.1,30.33,East,80,4.0,5.0,62,0.00,,,0.00,Wunderground v.1.13,2013-02-03 05:54:00,
2013-02-02 22:05:00,49.5,36.6,30.33,ENE,70,5.0,5.0,61,0.00,,,0.00,Wunderground v.1.13,2013-02-03 06:05:00,
2013-02-02 22:14:00,49.5,36.2,30.32,ENE,76,6.0,6.0,60,0.00,,,0.00,Wunderground v.1.13,2013-02-03 06:14:00,
2013-02-02 22:24:00,49.9,35.7,30.32,ENE,71,4.0,4.0,58,0.00,,,0.00,Wunderground v.1.13,2013-02-03 06:24:00,
2013-02-02 22:30:00,49.9,35.7,30.32,ENE,69,4.0,4.0,58,0.00,,,0.00,Wunderground v.1.13,2013-02-03 06:30:00,
2013-02-02 22:39:00,49.9,35.3,30.31,ENE,76,5.0,5.0,57,0.00,,,0.00,Wunderground v.1.13,2013-02-03 06:39:00,
2013-02-02 22:49:00,50.1,34.5,30.31,ENE,75,5.0,5.0,55,0.00,,,0.00,Wunderground v.1.13,2013-02-03 06:49:00,
2013-02-02 22:54:00,49.9,33.9,30.31,ENE,74,5.0,5.0,54,0.00,,,0.00,Wunderground v.1.13,2013-02-03 06:54:00,
2013-02-02 23:04:00,50.1,33.6,30.31,ENE,73,4.0,4.0,53,0.00,,,0.00,Wunderground v.1.13,2013-02-03 07:04:00,
2013-02-02 23:09:00,50.1,33.6,30.31,ENE,75,3.0,3.0,53,0.00,,,0.00,Wunderground v.1.13,2013-02-03 07:09:00,
2013-02-02 23:15:00,50.1,33.6,30.31,ENE,71,3.0,4.0,53,0.00,,,0.00,Wunderground v.1.13,2013-02-03 07:15:00,
2013-02-02 23:24:00,50.1,33.1,30.31,ENE,72,3.0,4.0,52,0.00,,,0.00,Wunderground v.1.13,2013-02-03 07:24:00,
2013-02-02 23:34:00,49.9,32.5,30.31,ENE,61,2.0,2.0,51,0.00,,,0.00,Wunderground v.1.13,2013-02-03 07:34:00,
2013-02-02 23:44:00,49.9,32.0,30.32,ENE,76,2.0,2.0,50,0.00,,,0.00,Wunderground v.1.13,2013-02-03 07:44:00,
2013-02-02 23:49:00,50.2,31.8,30.31,ENE,78,3.0,4.0,49,0.00,,,0.00,Wunderground v.1.13,2013-02-03 07:49:00,
2013-02-02 23:59:00,50.1,31.2,30.31,ENE,73,3.0,4.0,48,0.00,,,0.00,Wunderground v.1.13,2013-02-03 07:59:00,